createdAt,value
2022-10-11T00:01:03.747Z,47.03
2022-10-11T00:03:37.531Z,47.23
2022-10-11T00:06:07.316Z,47.12
2022-10-11T00:08:36.120Z,47.13
2022-10-11T00:11:07.570Z,47.07
2022-10-11T00:13:36.226Z,46.98
2022-10-11T00:16:10.059Z,46.93
2022-10-11T00:18:49.547Z,46.96
2022-10-11T00:21:28.326Z,47.12
2022-10-11T00:24:06.855Z,47.12
2022-10-11T00:26:47.074Z,46.97
2022-10-11T00:29:26.075Z,46.98
2022-10-11T00:32:05.395Z,46.52
2022-10-11T00:34:44.095Z,46.82
2022-10-11T00:37:22.507Z,46.54
2022-10-11T00:40:02.816Z,46.92
2022-10-11T00:42:42.106Z,46.54
2022-10-11T00:45:27.830Z,46.63
2022-10-11T00:48:22.549Z,46.63
2022-10-11T00:51:20.718Z,46.60
2022-10-11T00:54:02.050Z,46.86
2022-10-11T00:56:45.090Z,46.97
2022-10-11T00:59:28.657Z,46.60
2022-10-11T01:02:09.019Z,46.60
2022-10-11T01:04:47.606Z,46.65
2022-10-11T01:07:31.545Z,46.78
2022-10-11T01:10:10.828Z,46.50
2022-10-11T01:13:19.789Z,46.58
2022-10-11T01:16:08.996Z,46.56
2022-10-11T01:18:49.759Z,46.63
2022-10-11T01:21:43.207Z,46.74
2022-10-11T01:24:37.320Z,46.65
2022-10-11T01:27:35.278Z,46.83
2022-10-11T01:30:35.487Z,46.68
2022-10-11T01:33:35.687Z,46.76
2022-10-11T01:36:28.157Z,46.54
2022-10-11T01:39:12.591Z,46.53
2022-10-11T01:41:55.128Z,46.64
2022-10-11T01:44:34.778Z,46.63
2022-10-11T01:47:14.405Z,46.71
2022-10-11T01:49:58.867Z,46.68
2022-10-11T01:52:41.062Z,46.75
2022-10-11T01:55:29.477Z,47.17
2022-10-11T01:58:27.469Z,46.71
2022-10-11T02:01:22.141Z,47.10
2022-10-11T02:04:31.238Z,46.84
2022-10-11T02:07:25.462Z,46.97
2022-10-11T02:10:12.803Z,46.78
2022-10-11T02:13:02.979Z,46.69
2022-10-11T02:15:43.802Z,46.75
2022-10-11T02:18:27.199Z,46.88
2022-10-11T02:21:10.102Z,47.04
2022-10-11T02:24:04.018Z,46.89
2022-10-11T02:26:45.669Z,47.02
2022-10-11T02:29:28.517Z,46.94
2022-10-11T02:32:09.352Z,46.83
2022-10-11T02:34:57.834Z,46.70
2022-10-11T02:37:43.779Z,46.70
2022-10-11T02:40:35.760Z,47.05
2022-10-11T02:43:37.217Z,47.03
2022-10-11T02:46:17.721Z,46.98
2022-10-11T02:49:00.149Z,47.06
2022-10-11T02:51:39.170Z,46.97
2022-10-11T02:54:19.066Z,46.97
2022-10-11T02:56:57.249Z,46.91
2022-10-11T02:59:35.498Z,47.18
2022-10-11T03:02:13.669Z,46.84
2022-10-11T03:04:51.878Z,47.07
2022-10-11T03:07:30.209Z,47.09
2022-10-11T03:10:10.103Z,47.24
2022-10-11T03:12:49.666Z,46.94
2022-10-11T03:15:28.069Z,46.93
2022-10-11T03:18:07.672Z,46.87
2022-10-11T03:20:46.279Z,46.91
2022-10-11T03:23:25.798Z,47.01
2022-10-11T03:26:05.816Z,47.16
2022-10-11T03:28:45.429Z,47.15
2022-10-11T03:31:25.179Z,46.96
2022-10-11T03:34:04.804Z,47.26
2022-10-11T03:36:43.108Z,47.16
2022-10-11T03:39:21.427Z,47.01
2022-10-11T03:41:59.508Z,47.02
2022-10-11T03:44:39.065Z,47.32
2022-10-11T03:47:18.459Z,47.06
2022-10-11T03:49:57.359Z,46.99
2022-10-11T03:52:37.004Z,47.23
2022-10-11T03:55:15.440Z,47.08
2022-10-11T03:57:53.598Z,47.33
2022-10-11T04:00:34.740Z,47.37
2022-10-11T04:03:13.253Z,47.36
2022-10-11T04:05:51.479Z,47.13
2022-10-11T04:08:42.388Z,47.20
2022-10-11T04:11:21.039Z,47.19
2022-10-11T04:14:00.489Z,47.35
2022-10-11T04:16:39.079Z,47.20
2022-10-11T04:19:18.591Z,47.28
2022-10-11T04:21:56.620Z,47.25
2022-10-11T04:24:34.792Z,47.20
2022-10-11T04:27:13.019Z,47.82
2022-10-11T04:30:03.860Z,47.66
2022-10-11T04:32:42.948Z,47.42
2022-10-11T04:35:22.702Z,48.07
2022-10-11T04:38:00.929Z,47.81
2022-10-11T04:40:39.699Z,47.67
2022-10-11T04:43:19.371Z,47.29
2022-10-11T04:45:58.799Z,47.56
2022-10-11T04:48:36.868Z,47.48
2022-10-11T04:51:16.909Z,47.26
2022-10-11T04:53:56.633Z,47.39
2022-10-11T04:56:34.691Z,47.66
2022-10-11T04:59:12.849Z,47.63
2022-10-11T05:01:51.076Z,47.42
2022-10-11T05:04:29.368Z,47.58
2022-10-11T05:07:07.429Z,47.09
2022-10-11T05:09:47.368Z,47.15
2022-10-11T05:12:25.580Z,47.46
2022-10-11T05:15:04.098Z,47.19
2022-10-11T05:17:43.509Z,47.50
2022-10-11T05:20:22.108Z,47.33
2022-10-11T05:23:01.478Z,47.49
2022-10-11T05:25:42.376Z,47.58
2022-10-11T05:28:21.318Z,47.33
2022-10-11T05:31:01.028Z,48.74
2022-10-11T05:34:02.727Z,47.65
2022-10-11T05:36:42.478Z,47.92
2022-10-11T05:39:20.830Z,47.89
2022-10-11T05:41:58.936Z,47.71
2022-10-11T05:44:38.818Z,47.92
2022-10-11T05:47:18.071Z,47.85
2022-10-11T05:49:56.718Z,48.04
2022-10-11T05:52:33.330Z,47.87
2022-10-11T05:55:11.680Z,47.52
2022-10-11T05:57:55.851Z,47.59
2022-10-11T06:00:38.408Z,47.72
2022-10-11T06:03:17.918Z,48.08
2022-10-11T06:05:57.459Z,47.68
2022-10-11T06:08:37.142Z,47.77
2022-10-11T06:11:22.857Z,47.67
2022-10-11T06:14:12.971Z,48.01
2022-10-11T06:17:21.058Z,47.99
2022-10-11T06:20:13.138Z,48.03
2022-10-11T06:23:12.677Z,47.86
2022-10-11T06:26:11.207Z,48.06
2022-10-11T06:29:06.582Z,47.75
2022-10-11T06:32:02.870Z,47.96
2022-10-11T06:34:58.037Z,48.15
2022-10-11T06:37:54.647Z,48.21
2022-10-11T06:40:48.508Z,47.91
2022-10-11T06:43:45.029Z,48.02
2022-10-11T06:46:54.910Z,48.05
2022-10-11T06:49:50.697Z,48.24
2022-10-11T06:52:47.871Z,48.39
2022-10-11T06:55:43.838Z,48.55
2022-10-11T06:58:41.959Z,48.55
2022-10-11T07:01:38.069Z,48.49
2022-10-11T07:04:30.850Z,48.55
2022-10-11T07:07:29.399Z,48.46
2022-10-11T07:10:26.020Z,48.61
2022-10-11T07:13:18.279Z,48.63
2022-10-11T07:16:14.549Z,48.49
2022-10-11T07:19:10.568Z,48.19
2022-10-11T07:22:08.459Z,48.11
2022-10-11T07:25:01.674Z,47.97
2022-10-11T07:27:59.949Z,47.89
2022-10-11T07:30:58.257Z,47.65
2022-10-11T07:33:57.089Z,47.64
2022-10-11T07:36:55.273Z,47.76
2022-10-11T07:39:50.313Z,47.35
2022-10-11T07:43:10.724Z,47.61
2022-10-11T07:46:05.160Z,47.45
2022-10-11T07:49:12.540Z,47.46
2022-10-11T07:52:04.628Z,47.34
2022-10-11T07:55:15.175Z,47.38
2022-10-11T07:58:11.334Z,47.48
2022-10-11T08:01:11.142Z,47.46
2022-10-11T08:04:05.738Z,47.23
2022-10-11T08:06:57.929Z,47.55
2022-10-11T08:09:53.427Z,47.31
2022-10-11T08:13:04.734Z,47.47
2022-10-11T08:16:11.374Z,47.34
2022-10-11T08:19:07.614Z,47.25
2022-10-11T08:22:00.824Z,47.02
2022-10-11T08:25:08.798Z,47.33
2022-10-11T08:28:04.388Z,46.64
2022-10-11T08:30:59.284Z,46.96
2022-10-11T08:33:55.623Z,46.48
2022-10-11T08:37:02.945Z,46.55
2022-10-11T08:39:54.875Z,46.50
2022-10-11T08:43:19.008Z,46.45
2022-10-11T08:45:51.794Z,46.22
2022-10-11T08:48:41.955Z,46.26
2022-10-11T08:51:43.993Z,46.03
2022-10-11T08:54:21.723Z,46.20
2022-10-11T08:56:51.104Z,46.23
2022-10-11T08:59:31.264Z,46.00
2022-10-11T09:02:21.753Z,45.88
2022-10-11T09:04:52.176Z,46.10
2022-10-11T09:07:45.593Z,46.06
2022-10-11T09:10:32.634Z,46.19
2022-10-11T09:13:31.504Z,46.15
2022-10-11T09:16:20.213Z,45.96
2022-10-11T09:19:10.789Z,45.95
2022-10-11T09:22:14.325Z,45.74
2022-10-11T09:25:14.675Z,45.74
2022-10-11T09:28:11.038Z,45.76
2022-10-11T09:30:51.427Z,46.21
2022-10-11T09:33:32.725Z,45.74
2022-10-11T09:36:29.734Z,45.68
2022-10-11T09:39:25.826Z,45.64
2022-10-11T09:42:00.855Z,44.94
2022-10-11T09:44:50.875Z,45.66
2022-10-11T09:47:26.266Z,45.71
2022-10-11T09:50:01.441Z,45.67
2022-10-11T09:52:30.177Z,45.36
2022-10-11T09:55:01.059Z,45.23
2022-10-11T09:57:38.084Z,45.13
2022-10-11T10:00:21.259Z,45.47
2022-10-11T10:02:55.510Z,44.90
2022-10-11T10:05:32.646Z,45.21
2022-10-11T10:08:10.301Z,45.29
2022-10-11T10:11:06.798Z,45.73
2022-10-11T10:13:52.736Z,45.33
2022-10-11T10:16:26.755Z,45.70
2022-10-11T10:19:05.057Z,45.44
2022-10-11T10:21:37.100Z,46.05
2022-10-11T10:24:09.485Z,45.94
2022-10-11T10:26:38.079Z,45.90
2022-10-11T10:29:09.850Z,45.73
2022-10-11T10:32:12.959Z,46.01
2022-10-11T10:34:42.556Z,46.13
2022-10-11T10:37:30.050Z,46.23
2022-10-11T10:40:21.390Z,45.94
2022-10-11T10:42:50.841Z,46.04
2022-10-11T10:45:26.832Z,45.92
2022-10-11T10:48:17.441Z,46.24
2022-10-11T10:50:53.620Z,46.42
2022-10-11T10:53:35.141Z,46.20
2022-10-11T10:56:12.300Z,46.14
2022-10-11T10:58:56.844Z,45.75
2022-10-11T11:01:32.425Z,45.29
2022-10-11T11:04:18.782Z,45.73
2022-10-11T11:06:55.821Z,45.61
2022-10-11T11:09:45.730Z,45.34
2022-10-11T11:12:36.232Z,45.83
2022-10-11T11:15:22.307Z,45.75
2022-10-11T11:18:26.205Z,45.96
2022-10-11T11:21:16.390Z,46.11
2022-10-11T11:24:17.833Z,46.23
2022-10-11T11:27:20.578Z,45.76
2022-10-11T11:30:04.536Z,45.87
2022-10-11T11:32:55.048Z,46.04
2022-10-11T11:35:35.980Z,46.48
2022-10-11T11:38:29.711Z,45.98
2022-10-11T11:41:03.149Z,46.07
2022-10-11T11:43:49.448Z,45.71
2022-10-11T11:46:25.933Z,46.31
2022-10-11T11:48:57.579Z,46.10
2022-10-11T11:51:35.980Z,46.07
2022-10-11T11:54:27.485Z,46.11
2022-10-11T11:57:04.668Z,46.08
2022-10-11T12:00:05.952Z,45.95
2022-10-11T12:02:48.339Z,46.10
2022-10-11T12:05:20.469Z,46.06
2022-10-11T12:07:51.373Z,46.21
2022-10-11T12:10:31.089Z,46.12
2022-10-11T12:13:31.953Z,46.01
2022-10-11T12:16:27.661Z,45.56
2022-10-11T12:18:59.448Z,45.41
2022-10-11T12:21:30.312Z,45.45
2022-10-11T12:24:09.823Z,45.72
2022-10-11T12:26:55.733Z,45.87
2022-10-11T12:29:44.313Z,45.75
2022-10-11T12:32:28.483Z,45.77
2022-10-11T12:35:33.740Z,45.65
2022-10-11T12:38:16.614Z,45.73
2022-10-11T12:45:48.417Z,45.68
2022-10-11T12:48:37.209Z,45.50
2022-10-11T12:51:35.615Z,45.32
2022-10-11T12:54:41.523Z,45.38
2022-10-11T12:57:12.358Z,45.02
2022-10-11T12:59:44.891Z,44.95
2022-10-11T13:02:24.941Z,44.79
2022-10-11T13:04:54.066Z,44.61
2022-10-11T13:07:24.024Z,44.54
2022-10-11T13:09:55.588Z,44.52
2022-10-11T13:12:24.581Z,44.31
2022-10-11T13:15:08.982Z,44.10
2022-10-11T13:17:40.252Z,43.83
2022-10-11T13:20:18.443Z,44.36
2022-10-11T13:22:50.105Z,44.06
2022-10-11T13:25:25.236Z,43.91
2022-10-11T13:27:55.915Z,43.80
2022-10-11T13:30:28.237Z,43.74
2022-10-11T13:32:57.471Z,43.83
2022-10-11T13:35:36.622Z,44.11
2022-10-11T13:38:09.450Z,43.90
2022-10-11T13:40:41.309Z,44.00
2022-10-11T13:43:09.707Z,44.00
2022-10-11T13:45:39.427Z,43.85
2022-10-11T13:48:14.840Z,43.90
2022-10-11T13:50:51.380Z,43.92
2022-10-11T13:53:19.508Z,43.96
2022-10-11T13:55:52.199Z,43.84
2022-10-11T13:58:53.194Z,43.59
2022-10-11T14:01:36.885Z,44.19
2022-10-11T14:04:09.497Z,43.86
2022-10-11T14:07:00.575Z,43.90
2022-10-11T14:09:37.812Z,43.53
2022-10-11T14:12:30.038Z,43.74
2022-10-11T14:15:00.849Z,43.80
2022-10-11T14:17:40.701Z,43.88
2022-10-11T14:20:37.908Z,43.73
2022-10-11T14:23:07.632Z,43.55
2022-10-11T14:25:36.020Z,43.63
2022-10-11T14:28:05.999Z,43.36
2022-10-11T14:30:34.571Z,43.80
2022-10-11T14:33:02.909Z,43.94
2022-10-11T14:35:35.280Z,43.80
2022-10-11T14:38:03.503Z,43.45
2022-10-11T14:40:32.069Z,43.81
2022-10-11T14:43:00.558Z,43.76
2022-10-11T14:45:29.922Z,43.87
2022-10-11T14:47:58.668Z,43.84
2022-10-11T14:50:52.900Z,43.53
2022-10-11T14:53:22.452Z,43.45
2022-10-11T14:55:51.328Z,43.40
2022-10-11T14:58:19.910Z,43.54
2022-10-11T15:00:48.276Z,43.59
2022-10-11T15:03:16.508Z,43.48
2022-10-11T15:05:45.141Z,43.46
2022-10-11T15:08:15.073Z,43.52
2022-10-11T15:10:43.652Z,43.29
2022-10-11T15:13:11.978Z,43.35
2022-10-11T15:15:41.616Z,43.15
2022-10-11T15:18:13.290Z,43.31
2022-10-11T15:20:45.032Z,43.14
2022-10-11T15:23:14.006Z,43.65
2022-10-11T15:25:45.456Z,43.28
2022-10-11T15:28:30.149Z,43.57
2022-10-11T15:31:01.164Z,42.96
2022-10-11T15:33:29.644Z,43.40
2022-10-11T15:35:57.924Z,43.18
2022-10-11T15:38:26.381Z,43.35
2022-10-11T15:41:00.174Z,43.78
2022-10-11T15:43:28.333Z,43.37
2022-10-11T15:45:58.324Z,43.85
2022-10-11T15:48:27.458Z,43.57
2022-10-11T15:50:56.123Z,43.40
2022-10-11T15:53:31.539Z,43.79
2022-10-11T15:56:05.368Z,44.09
2022-10-11T15:58:40.384Z,44.02
2022-10-11T16:01:15.054Z,44.37
2022-10-11T16:03:44.524Z,44.35
2022-10-11T16:06:13.489Z,43.91
2022-10-11T16:08:42.032Z,44.25
2022-10-11T16:11:12.335Z,44.23
2022-10-11T16:13:40.704Z,44.45
2022-10-11T16:16:11.244Z,44.66
2022-10-11T16:18:39.978Z,44.59
2022-10-11T16:21:11.008Z,44.71
2022-10-11T16:23:40.063Z,44.62
2022-10-11T16:26:12.153Z,44.68
2022-10-11T16:28:42.151Z,44.79
2022-10-11T16:31:21.130Z,44.66
2022-10-11T16:33:50.463Z,44.86
2022-10-11T16:36:40.917Z,45.33
2022-10-11T16:39:15.232Z,45.01
2022-10-11T16:41:43.592Z,44.90
2022-10-11T16:44:16.884Z,44.96
2022-10-11T16:46:49.921Z,45.17
2022-10-11T16:49:20.463Z,45.29
2022-10-11T16:51:50.601Z,45.49
2022-10-11T16:54:20.678Z,45.25
2022-10-11T16:56:50.483Z,45.13
2022-10-11T16:59:19.427Z,45.09
2022-10-11T17:01:48.230Z,45.52
2022-10-11T17:04:16.598Z,45.35
2022-10-11T17:06:45.431Z,45.24
2022-10-11T17:09:43.995Z,45.61
2022-10-11T17:12:15.206Z,45.52
2022-10-11T17:14:43.776Z,45.37
2022-10-11T17:17:12.723Z,45.52
2022-10-11T17:19:45.481Z,45.25
2022-10-11T17:22:19.852Z,45.40
2022-10-11T17:24:51.725Z,45.24
2022-10-11T17:27:20.045Z,45.20
2022-10-11T17:29:48.235Z,45.17
2022-10-11T17:34:44.581Z,45.16
2022-10-11T17:37:12.835Z,45.16
2022-10-11T17:39:41.537Z,45.32
2022-10-11T17:42:09.643Z,45.32
2022-10-11T17:44:38.124Z,45.17
2022-10-11T17:47:06.455Z,44.93
2022-10-11T17:49:34.578Z,45.25
2022-10-11T17:52:03.099Z,45.08
2022-10-11T17:54:31.385Z,45.16
2022-10-11T17:56:59.676Z,45.40
2022-10-11T17:59:29.197Z,45.64
2022-10-11T18:01:57.626Z,45.09
2022-10-11T18:04:30.309Z,45.30
2022-10-11T18:06:58.858Z,45.44
2022-10-11T18:09:27.343Z,45.33
2022-10-11T18:11:55.573Z,45.31
2022-10-11T18:14:23.788Z,45.23
2022-10-11T18:16:52.095Z,45.16
2022-10-11T18:19:20.268Z,45.34
2022-10-11T18:21:48.357Z,45.64
2022-10-11T18:24:17.298Z,45.50
2022-10-11T18:26:46.394Z,45.67
2022-10-11T18:29:14.625Z,45.87
2022-10-11T18:31:43.015Z,45.74
2022-10-11T18:34:13.215Z,45.81
2022-10-11T18:36:41.882Z,45.69
2022-10-11T18:39:13.453Z,45.99
2022-10-11T18:41:44.725Z,46.23
2022-10-11T18:44:16.326Z,46.14
2022-10-11T18:46:45.493Z,46.69
2022-10-11T18:49:14.478Z,46.71
2022-10-11T18:51:43.209Z,46.58
2022-10-11T18:54:16.665Z,46.99
2022-10-11T18:56:48.464Z,46.85
2022-10-11T18:59:17.374Z,46.78
2022-10-11T19:01:46.398Z,47.19
2022-10-11T19:04:18.845Z,47.49
2022-10-11T19:06:49.296Z,47.62
2022-10-11T19:09:23.005Z,47.64
2022-10-11T19:11:53.512Z,47.81
2022-10-11T19:14:26.086Z,47.72
2022-10-11T19:16:55.344Z,47.72
2022-10-11T19:19:27.214Z,47.35
2022-10-11T19:21:55.917Z,47.68
2022-10-11T19:24:26.750Z,47.93
2022-10-11T19:27:01.188Z,48.05
2022-10-11T19:29:32.580Z,47.90
2022-10-11T19:32:05.404Z,47.90
2022-10-11T19:34:34.299Z,47.77
2022-10-11T19:37:04.161Z,47.82
2022-10-11T19:39:32.774Z,47.85
2022-10-11T19:42:01.525Z,47.66
2022-10-11T19:44:33.423Z,47.57
2022-10-11T19:47:05.454Z,47.63
2022-10-11T19:49:34.181Z,47.66
2022-10-11T19:52:02.474Z,47.77
2022-10-11T19:54:32.313Z,48.07
2022-10-11T19:57:00.484Z,47.89
2022-10-11T19:59:29.004Z,48.14
2022-10-11T20:01:57.017Z,48.08
2022-10-11T20:04:52.098Z,48.21
2022-10-11T20:07:13.622Z,48.03
2022-10-11T20:09:42.273Z,48.15
2022-10-11T20:12:10.360Z,48.33
2022-10-11T20:14:38.877Z,48.37
2022-10-11T20:17:07.132Z,48.05
2022-10-11T20:19:35.573Z,48.48
2022-10-11T20:22:03.810Z,48.50
2022-10-11T20:24:34.599Z,48.27
2022-10-11T20:27:04.969Z,48.44
2022-10-11T20:29:33.911Z,48.46
2022-10-11T20:32:02.073Z,48.19
2022-10-11T20:34:31.150Z,48.07
2022-10-11T20:36:59.589Z,48.14
2022-10-11T20:39:28.009Z,48.27
2022-10-11T20:41:56.088Z,47.85
2022-10-11T20:44:24.490Z,48.10
2022-10-11T20:46:52.641Z,47.95
2022-10-11T20:49:22.617Z,48.18
2022-10-11T20:51:51.075Z,48.25
2022-10-11T20:54:19.316Z,48.34
2022-10-11T20:56:47.594Z,48.12
2022-10-11T20:59:16.117Z,48.06
2022-10-11T21:01:44.415Z,48.34
2022-10-11T21:04:18.846Z,48.28
2022-10-11T21:06:48.883Z,48.25
2022-10-11T21:09:19.390Z,48.33
2022-10-11T21:11:47.842Z,48.18
2022-10-11T21:14:16.186Z,48.14
2022-10-11T21:16:44.629Z,48.20
2022-10-11T21:19:15.311Z,47.97
2022-10-11T21:21:45.082Z,48.24
2022-10-11T21:24:15.927Z,48.19
2022-10-11T21:26:44.042Z,48.34
2022-10-11T21:29:16.133Z,48.13
2022-10-11T21:31:44.233Z,48.11
2022-10-11T21:34:12.507Z,47.96
2022-10-11T21:36:40.860Z,47.94
2022-10-11T21:39:09.332Z,47.96
2022-10-11T21:41:37.446Z,47.98
2022-10-11T21:44:05.957Z,48.00
2022-10-11T21:47:04.779Z,47.82
2022-10-11T21:49:22.826Z,47.72
2022-10-11T21:51:51.142Z,47.63
2022-10-11T21:54:20.205Z,48.00
2022-10-11T21:56:48.358Z,48.33
2022-10-11T21:59:16.676Z,48.09
2022-10-11T22:01:45.154Z,47.95
2022-10-11T22:04:13.371Z,48.20
2022-10-11T22:06:41.586Z,48.08
2022-10-11T22:09:35.317Z,47.87
2022-10-11T22:12:04.555Z,47.99
2022-10-11T22:14:33.337Z,47.90
2022-10-11T22:17:01.513Z,48.09
2022-10-11T22:19:29.736Z,48.12
2022-10-11T22:21:58.081Z,48.06
2022-10-11T22:24:28.711Z,47.93
2022-10-11T22:26:56.803Z,47.94
2022-10-11T22:29:25.327Z,48.05
2022-10-11T22:31:53.457Z,47.79
2022-10-11T22:34:21.834Z,48.00
2022-10-11T22:36:50.201Z,47.95
2022-10-11T22:39:18.351Z,48.20
2022-10-11T22:41:46.577Z,47.73
2022-10-11T22:44:16.782Z,47.67
2022-10-11T22:46:44.932Z,48.00
2022-10-11T22:49:13.190Z,47.86
2022-10-11T22:51:41.531Z,47.74
2022-10-11T22:54:11.376Z,47.97
2022-10-11T22:56:39.588Z,47.99
2022-10-11T22:59:08.339Z,47.80
2022-10-11T23:01:36.568Z,47.67
2022-10-11T23:04:06.686Z,47.92
2022-10-11T23:06:35.270Z,47.48
2022-10-11T23:09:03.768Z,47.46
2022-10-11T23:11:32.112Z,48.08
2022-10-11T23:14:00.689Z,47.75
2022-10-11T23:16:29.152Z,47.50
2022-10-11T23:18:57.673Z,47.61
2022-10-11T23:21:26.289Z,47.59
2022-10-11T23:23:57.959Z,47.61
2022-10-11T23:26:26.217Z,47.69
2022-10-11T23:28:58.269Z,47.26
2022-10-11T23:31:26.618Z,47.54
2022-10-11T23:33:55.231Z,47.55
2022-10-11T23:36:25.663Z,47.75
2022-10-11T23:38:56.817Z,47.67
2022-10-11T23:41:27.680Z,47.80
2022-10-11T23:43:57.527Z,47.83
2022-10-11T23:46:26.067Z,47.73
2022-10-11T23:48:54.396Z,47.62
2022-10-11T23:51:22.710Z,47.37
2022-10-11T23:53:51.476Z,47.66
2022-10-11T23:56:20.203Z,47.54
2022-10-11T23:58:48.847Z,47.68
